MSC Susanna — 3ECU4 — position and weather

sailwx.info

Track history (hours):
 
Tides and Currents Weather Stations Pressure Air Temp Water Temp Dewpoint Dewpoint Depression Visibility Wind Speed Wind Dir Waves Ship Positions

MSC Susanna

Last reported at 2014-Dec-15 12:18 UTC. Time now 2014-Dec-20 03:03 UTC.
Position N 34°55' E 023°07'.

Length 337 m; draft 14 m.

Type: Ship (hazmat cat A). MMSI: 371466000.

Date/timePositionNaut miles runAvg speedWind from/ knotsBaromVisibWave heightAir tempDewpointWater temp
2014-Dec-15 12:18N 34°55' E 023°07'41118.7
2014-Dec-14 14:23N 38°03' E 015°33'1914.2
2014-Dec-14 13:04N 38°20' E 015°45'10 0.6
2014-Dec-13 19:23N 38°27' E 015°54'0 0.0
2014-Dec-13 18:31N 38°27' E 015°54'0 0.0
2014-Dec-13 17:19N 38°27' E 015°54'0 0.0
2014-Dec-12 19:10N 38°27' E 015°54'0 0.0
2014-Dec-12 18:30N 38°27' E 015°54'0 0.0
2014-Dec-12 17:28N 38°27' E 015°54'0 0.0
2014-Dec-12 16:27N 38°27' E 015°54'0 0.0
2014-Dec-12 15:32N 38°27' E 015°54'0 0.0
2014-Dec-12 13:05N 38°27' E 015°54'  
2014-Dec-09 11:33N 36°00' W 005°12'24015.8
2014-Dec-08 20:23N 37°37' W 009°46'1517.7
2014-Dec-08 19:33N 37°51' W 009°52'1818.0
2014-Dec-08 18:33N 38°09' W 009°57'1818.1
2014-Dec-08 17:33N 38°26' W 010°02'1817.7
2014-Dec-08 16:33N 38°44' W 010°06'1817.7
2014-Dec-08 15:31N 39°02' W 010°06'73015.9
2014-Dec-06 17:33N 50°02' W 002°48'9518.2
2014-Dec-06 12:20N 50°26' W 000°24'1917.3
2014-Dec-06 11:13N 50°31' E 000°05'1116.4
2014-Dec-06 10:34N 50°34' E 000°22'1515.4
2014-Dec-06 09:33N 50°42' E 000°42'1615.9
2014-Dec-06 08:34N 50°51' E 001°03'1817.9
2014-Dec-06 07:34N 51°02' E 001°25'1919.4
2014-Dec-06 06:33N 51°15' E 001°49'1414.4
2014-Dec-06 05:34N 51°23' E 002°08'1716.3
2014-Dec-06 04:32N 51°22' E 002°35'1313.1
2014-Dec-06 03:33N 51°25' E 002°55'1817.6
2014-Dec-06 02:34N 51°25' E 003°23'1212.3
2014-Dec-06 01:34N 51°24' E 003°43'1010.2
2014-Dec-06 00:33N 51°26' E 003°59'9 9.1
2014-Dec-05 23:33N 51°23' E 004°13'4 4.0
2014-Dec-05 22:33N 51°21' E 004°17'0 0.4
2014-Dec-05 21:34N 51°21' E 004°18'1 1.4
2014-Dec-05 20:33N 51°19' E 004°19'0 0.0
2014-Dec-05 19:33N 51°19' E 004°19'0 0.0
2014-Dec-05 18:33N 51°19' E 004°19'0 0.0
2014-Dec-05 17:33N 51°19' E 004°19'0 0.0
2014-Dec-05 16:33N 51°19' E 004°19'0 0.0
2014-Dec-05 15:33N 51°19' E 004°19'0 0.0
2014-Dec-05 14:33N 51°19' E 004°19'0 0.0
2014-Dec-05 13:33N 51°19' E 004°19'0 0.0
2014-Dec-05 12:33N 51°19' E 004°19'  
Track history (hours):
 
Tides and Currents Weather Stations Pressure Air Temp Water Temp Dewpoint Dewpoint Depression Visibility Wind Speed Wind Dir Waves Ship Positions

MSC Susanna

Last reported at 2014-Dec-15 12:18 UTC. Time now 2014-Dec-20 03:03 UTC.
Position N 34°55' E 023°07'.

Length 337 m; draft 14 m.

Type: Ship (hazmat cat A). MMSI: 371466000.

Date/timePositionNaut miles runAvg speedWind from/ knotsBaromVisibWave heightAir tempDewpointWater temp
2014-Dec-15 12:18N 34°55' E 023°07'41118.7
2014-Dec-14 14:23N 38°03' E 015°33'1914.2
2014-Dec-14 13:04N 38°20' E 015°45'10 0.6
2014-Dec-13 19:23N 38°27' E 015°54'0 0.0
2014-Dec-13 18:31N 38°27' E 015°54'0 0.0
2014-Dec-13 17:19N 38°27' E 015°54'0 0.0
2014-Dec-12 19:10N 38°27' E 015°54'0 0.0
2014-Dec-12 18:30N 38°27' E 015°54'0 0.0
2014-Dec-12 17:28N 38°27' E 015°54'0 0.0
2014-Dec-12 16:27N 38°27' E 015°54'0 0.0
2014-Dec-12 15:32N 38°27' E 015°54'0 0.0
2014-Dec-12 13:05N 38°27' E 015°54'  
2014-Dec-09 11:33N 36°00' W 005°12'24015.8
2014-Dec-08 20:23N 37°37' W 009°46'1517.7
2014-Dec-08 19:33N 37°51' W 009°52'1818.0
2014-Dec-08 18:33N 38°09' W 009°57'1818.1
2014-Dec-08 17:33N 38°26' W 010°02'1817.7
2014-Dec-08 16:33N 38°44' W 010°06'1817.7
2014-Dec-08 15:31N 39°02' W 010°06'73015.9
2014-Dec-06 17:33N 50°02' W 002°48'9518.2
2014-Dec-06 12:20N 50°26' W 000°24'1917.3
2014-Dec-06 11:13N 50°31' E 000°05'1116.4
2014-Dec-06 10:34N 50°34' E 000°22'1515.4
2014-Dec-06 09:33N 50°42' E 000°42'1615.9
2014-Dec-06 08:34N 50°51' E 001°03'1817.9
2014-Dec-06 07:34N 51°02' E 001°25'1919.4
2014-Dec-06 06:33N 51°15' E 001°49'1414.4
2014-Dec-06 05:34N 51°23' E 002°08'1716.3
2014-Dec-06 04:32N 51°22' E 002°35'1313.1
2014-Dec-06 03:33N 51°25' E 002°55'1817.6
2014-Dec-06 02:34N 51°25' E 003°23'1212.3
2014-Dec-06 01:34N 51°24' E 003°43'1010.2
2014-Dec-06 00:33N 51°26' E 003°59'9 9.1
2014-Dec-05 23:33N 51°23' E 004°13'4 4.0
2014-Dec-05 22:33N 51°21' E 004°17'0 0.4
2014-Dec-05 21:34N 51°21' E 004°18'1 1.4
2014-Dec-05 20:33N 51°19' E 004°19'0 0.0
2014-Dec-05 19:33N 51°19' E 004°19'0 0.0
2014-Dec-05 18:33N 51°19' E 004°19'0 0.0
2014-Dec-05 17:33N 51°19' E 004°19'0 0.0
2014-Dec-05 16:33N 51°19' E 004°19'0 0.0
2014-Dec-05 15:33N 51°19' E 004°19'0 0.0
2014-Dec-05 14:33N 51°19' E 004°19'0 0.0
2014-Dec-05 13:33N 51°19' E 004°19'0 0.0
2014-Dec-05 12:33N 51°19' E 004°19'  

Dump ship's entire track history